Historyczne dane pomiarowe

Dodano dane terminowe – wersja testowa.

Dane z okresu 1951-2019

Wersja bazy: 1.34 [2019-03-16, lista zmian], aktualizacja planowana na 2019-04-15

Dane meteo z obszaru Polski uzyskane na podstawie danych udostępnionych przez Instytut Meteorologii i Gospodarki Wodnej – Państwowy Instytut Badawczy.

 

Wybierz Datę:    

       

TemperaturaWilgotnośćWiatrCiśnienieOpadyŚniegCzas trwania zjawisk
 Stacja t tx tn tng RH VA  wxwx mslp ppp RRR   cm mm wxwxwxwxwxwxwx
1999-08-14 14.4 23.3 3.9 -1.0 67.0- 3.0 0.7---- 0.7------------
1999-08-13 14.8 18.9 12.2 8.1 68.3- 6.3 1.7---- 0.1------------
1999-08-12 15.8 20.1 12.7 5.7 65.0- 5.7 2.7---- 0.0------------
1999-08-11 17.6 20.9 15.3 9.9 81.0- 7.7 3.7---- 0.0------------
1999-08-10 19.4 25.0 15.3 10.6 76.3- 6.7 1.3---- 4.6------------
1999-08-09 21.9 28.3 14.6 9.1 62.8- 6.0 0.7---- 1.0------------
1999-08-08 22.6 30.1 13.7 8.1 58.5- 2.3 0.7---- 0.0------------
1999-08-07 20.7 29.1 11.2 6.3 68.0- 2.3 0.0---- 0.0------------
1999-08-06 22.7 28.6 17.1 12.7 62.8- 4.0 2.3---- 0.0------------
1999-08-05 18.3 28.1 8.5 2.0 64.8- 4.0 0.7---- 0.0------------
1999-08-04 18.9 28.1 8.7 2.5 56.8- 1.7 0.7---- 0.0------------
1999-08-03 18.0 27.2 6.2 1.4 57.8- 0.3 1.7---- 0.0------------
1999-08-02 17.5 26.6 7.2 2.4 53.5- 1.3 1.7---- 0.0------------
1999-08-01 18.6 27.6 7.6 2.6 51.3- 0.0 0.7---- 0.0------------
1999-07-31 18.3 27.0 8.2 3.6 56.8- 1.0 1.0---- 0.0------------
1999-07-30 17.8 26.2 7.7 3.9 61.8- 0.3 1.0---- 0.0------------
1999-07-29 17.8 25.4 8.2 4.7 58.8- 1.0 3.0---- 0.0------------
1999-07-28 17.1 25.0 7.1 2.0 58.8- 1.0 1.0---- 0.0------------
1999-07-27 18.0 22.4 14.3 7.5 60.8- 5.3 0.7---- 0.0------------
1999-07-26 19.9 27.7 11.7 3.6 70.8- 2.0 1.0---- 0.0------------
1999-07-25 20.1 27.0 12.9 4.3 66.0- 3.7 0.0---- 0.0------------
1999-07-24 16.2 20.5 13.5 7.9 71.5- 7.0 1.7---- 0.0------------
1999-07-23 15.2 17.9 12.7 4.6 81.3- 5.3 2.3---- 0.1------------
1999-07-22 18.1 22.9 15.1 6.1 57.5- 4.7 1.7---- 0.0------------
1999-07-21 22.1 27.6 16.1 7.1 63.5- 2.3 2.7---- 0.1------------
1999-07-20 21.6 30.5 12.6 4.1 65.0- 0.7 1.7---- 4.7------------
1999-07-19 22.2 30.6 12.2 9.6 54.0- 0.0 0.0---- 0.0------------
1999-07-18 20.6 28.5 11.2 2.8 61.3- 0.3 1.7---- 0.0------------
1999-07-17 18.2 25.5 8.7 1.0 63.5- 1.0 0.0---- 0.0------------
1999-07-16 15.8 22.1 8.7 1.0 71.3- 4.3 2.3---- 0.0------------
1999-07-15 15.8 19.9 13.2 6.3 80.0- 8.0 3.0---- 0.1------------
1999-07-14 19.0 23.6 17.1 9.3 84.8- 7.7 2.3---- 9.3------------
1999-07-13 21.6 27.6 15.5 8.6 75.8- 3.0 1.3---- 1.7------------
1999-07-12 21.2 28.3 14.6 8.6 80.3- 4.3 2.7---- 0.0------------
1999-07-11 19.4 24.0 14.5 6.9 69.8- 4.0 3.3---- 0.0------------
1999-07-10 20.7 25.0 15.7 8.6 65.5- 2.0 2.7---- 0.0------------
1999-07-09 18.4 22.1 14.8 10.1 80.0- 8.0 2.3---- 0.0------------
1999-07-08 15.9 17.4 14.6 9.6 89.8- 8.0 0.7---- 3.3------------
1999-07-07 17.1 22.6 15.1 11.1 88.8- 7.7 1.0---- 0.9------------
1999-07-06 20.9 25.5 15.6 7.7 77.3- 7.3 4.0---- 15.8------------
1999-07-05 24.5 32.5 15.7 6.6 63.5- 3.3 1.0---- 0.0------------
1999-07-04 22.8 31.3 13.4 6.3 63.0- 0.0 1.7---- 0.0------------
1999-07-03 20.4 28.1 11.2 4.6 66.0- 1.0 0.0---- 0.0------------
1999-07-02 17.9 22.9 12.4 6.1 78.5- 7.0 1.7---- 0.0------------
1999-07-01 19.7 23.2 16.1 10.1 76.8- 5.0 2.7---- 0.0------------
1999-06-30 19.5 27.0 11.6 5.7 69.5- 1.0 0.7---- 10.6------------
1999-06-29 18.5 24.0 10.7 3.1 51.3- 3.0 0.7---- 0.0------------
1999-06-28 18.1 25.4 11.6 5.6 70.5- 4.0 1.0---- 0.0------------
1999-06-27 18.2 24.0 12.4 6.1 80.5- 8.0 1.3---- 0.1------------
1999-06-26 13.6 21.4 3.6 -2.0 74.8- 0.7 1.7---- 0.1------------
1999-06-25 11.9 16.8 4.7 -1.0 70.5- 7.3 0.0---- 0.0------------
1999-06-24 11.5 18.1 4.6 -1.5 81.0- 5.7 0.7---- 0.5------------
1999-06-23 12.8 17.4 9.1 5.1 68.0- 4.3 2.7---- 0.0------------
1999-06-22 10.9 13.8 9.7 6.1 87.3- 8.0 1.7---- 8.8------------
1999-06-21 15.5 20.3 12.7 6.4 82.8- 8.0 0.7---- 2.4------------
1999-06-20 17.2 22.9 10.0 4.1 70.0- 2.7 1.0---- 0.0------------
1999-06-19 14.9 18.1 11.7 8.3 86.5- 5.3 0.7---- 0.0------------
1999-06-18 14.5 20.4 11.9 6.5 85.5- 8.0 3.0---- 36.0------------
1999-06-17 16.9 21.9 10.3 4.5 77.8- 6.0 1.0---- 0.0------------
1999-06-16 16.9 20.9 13.2 7.3 74.0- 6.3 1.7---- 0.0------------
367.7 ms

 

Źródłem pochodzenia danych jest Instytut Meteorologii i Gospodarki Wodnej – Państwowy Instytut Badawczy. Dane Instytutu Meteorologii i Gospodarki Wodnej – Państwowego Instytutu Badawczego zostały przetworzone.

Dane źródłowe można odnaleźć na stronie https://dane.imgw.pl